sensor_id;sensor_type;location;lat;lon;timestamp;temperature;humidity
14022;DHT22;7086;48.116;11.580;2022-12-18T01:36:51;-1.60;93.00
14022;DHT22;7086;48.116;11.580;2022-12-18T01:40:02;-1.60;93.20
14022;DHT22;7086;48.116;11.580;2022-12-18T01:43:02;-2.90;92.50
14022;DHT22;7086;48.116;11.580;2022-12-18T01:47:01;-3.30;92.40
14022;DHT22;7086;48.116;11.580;2022-12-18T02:05:59;-2.60;92.70
14022;DHT22;7086;48.116;11.580;2022-12-18T02:09:00;-2.90;91.90
14022;DHT22;7086;48.116;11.580;2022-12-18T02:12:09;-1.70;92.60
14022;DHT22;7086;48.116;11.580;2022-12-18T02:15:18;-1.70;92.30
14022;DHT22;7086;48.116;11.580;2022-12-18T02:18:40;-1.70;93.00
14022;DHT22;7086;48.116;11.580;2022-12-18T02:21:30;-1.70;92.10
14022;DHT22;7086;48.116;11.580;2022-12-18T02:24:28;-1.70;92.80
14022;DHT22;7086;48.116;11.580;2022-12-18T02:27:22;-1.80;93.00
14022;DHT22;7086;48.116;11.580;2022-12-18T02:30:12;-1.80;92.50
14022;DHT22;7086;48.116;11.580;2022-12-18T02:32:56;-1.90;93.00
14022;DHT22;7086;48.116;11.580;2022-12-18T02:35:49;0.90;93.40
14022;DHT22;7086;48.116;11.580;2022-12-18T02:38:35;-3.50;92.50
14022;DHT22;7086;48.116;11.580;2022-12-18T02:41:04;-0.50;93.30
14022;DHT22;7086;48.116;11.580;2022-12-18T02:43:36;-1.70;93.00
14022;DHT22;7086;48.116;11.580;2022-12-18T02:46:28;0.50;93.40
14022;DHT22;7086;48.116;11.580;2022-12-18T02:49:49;-1.70;93.10
14022;DHT22;7086;48.116;11.580;2022-12-18T02:54:39;-3.60;92.50
14022;DHT22;7086;48.116;11.580;2022-12-18T02:56:46;-1.70;92.60
14022;DHT22;7086;48.116;11.580;2022-12-18T03:00:16;-1.70;92.30
14022;DHT22;7086;48.116;11.580;2022-12-18T03:03:44;-1.70;93.00
14022;DHT22;7086;48.116;11.580;2022-12-18T03:06:45;-1.70;93.00
14022;DHT22;7086;48.116;11.580;2022-12-18T03:09:31;-1.80;92.70
14022;DHT22;7086;48.116;11.580;2022-12-18T03:12:09;-2.30;92.50
14022;DHT22;7086;48.116;11.580;2022-12-18T03:24:00;-3.20;92.80
14022;DHT22;7086;48.116;11.580;2022-12-18T03:33:23;-1.80;93.30
14022;DHT22;7086;48.116;11.580;2022-12-18T03:35:55;-1.80;93.20
14022;DHT22;7086;48.116;11.580;2022-12-18T03:38:26;-0.90;92.90
14022;DHT22;7086;48.116;11.580;2022-12-18T03:40:59;0.40;93.40
14022;DHT22;7086;48.116;11.580;2022-12-18T03:43:40;-1.80;93.30
14022;DHT22;7086;48.116;11.580;2022-12-18T03:46:21;-1.40;93.40
14022;DHT22;7086;48.116;11.580;2022-12-18T03:49:20;-1.80;93.30
14022;DHT22;7086;48.116;11.580;2022-12-18T03:52:09;-1.70;93.30
14022;DHT22;7086;48.116;11.580;2022-12-18T03:54:41;-1.80;92.90
14022;DHT22;7086;48.116;11.580;2022-12-18T03:57:20;-0.40;93.20
14022;DHT22;7086;48.116;11.580;2022-12-18T04:02:48;-1.70;93.50
14022;DHT22;7086;48.116;11.580;2022-12-18T04:04:24;-2.60;93.10
14022;DHT22;7086;48.116;11.580;2022-12-18T04:07:44;-2.80;93.10
14022;DHT22;7086;48.116;11.580;2022-12-18T04:10:58;-1.70;92.20
14022;DHT22;7086;48.116;11.580;2022-12-18T04:16:57;-1.60;92.80
14022;DHT22;7086;48.116;11.580;2022-12-18T04:18:14;-1.60;92.40
14022;DHT22;7086;48.116;11.580;2022-12-18T04:40:45;-1.60;93.20
14022;DHT22;7086;48.116;11.580;2022-12-18T04:48:17;-2.60;92.90
14022;DHT22;7086;48.116;11.580;2022-12-18T04:58:57;-1.70;92.70
14022;DHT22;7086;48.116;11.580;2022-12-18T05:01:33;-1.80;92.30
14022;DHT22;7086;48.116;11.580;2022-12-18T05:04:11;-1.80;91.90
14022;DHT22;7086;48.116;11.580;2022-12-18T05:06:41;-0.30;92.50
14022;DHT22;7086;48.116;11.580;2022-12-18T05:09:09;0.20;92.80
14022;DHT22;7086;48.116;11.580;2022-12-18T05:11:40;-0.40;92.60
14022;DHT22;7086;48.116;11.580;2022-12-18T05:14:12;-1.80;92.50
14022;DHT22;7086;48.116;11.580;2022-12-18T05:16:42;-1.80;92.20
14022;DHT22;7086;48.116;11.580;2022-12-18T05:19:11;-1.60;92.30
14022;DHT22;7086;48.116;11.580;2022-12-18T05:25:25;-4.40;92.50
14022;DHT22;7086;48.116;11.580;2022-12-18T05:35:42;-1.80;93.00
14022;DHT22;7086;48.116;11.580;2022-12-18T05:38:13;-2.80;91.70
14022;DHT22;7086;48.116;11.580;2022-12-18T05:40:41;-1.40;92.20
14022;DHT22;7086;48.116;11.580;2022-12-18T05:43:10;-0.60;92.70
14022;DHT22;7086;48.116;11.580;2022-12-18T05:45:38;-1.70;92.50
14022;DHT22;7086;48.116;11.580;2022-12-18T05:48:07;-1.10;93.10
14022;DHT22;7086;48.116;11.580;2022-12-18T05:50:40;-0.40;93.30
14022;DHT22;7086;48.116;11.580;2022-12-18T05:53:11;-1.30;93.10
14022;DHT22;7086;48.116;11.580;2022-12-18T05:55:42;-1.30;93.10
14022;DHT22;7086;48.116;11.580;2022-12-18T05:58:12;-1.70;92.90
14022;DHT22;7086;48.116;11.580;2022-12-18T06:00:52;0.60;93.20
14022;DHT22;7086;48.116;11.580;2022-12-18T06:03:21;-1.70;92.00
14022;DHT22;7086;48.116;11.580;2022-12-18T06:05:52;-1.70;92.20
14022;DHT22;7086;48.116;11.580;2022-12-18T06:08:22;-2.40;92.00
14022;DHT22;7086;48.116;11.580;2022-12-18T06:10:55;-0.90;92.20
14022;DHT22;7086;48.116;11.580;2022-12-18T06:13:40;-1.00;92.60
14022;DHT22;7086;48.116;11.580;2022-12-18T06:16:23;0.40;93.20
14022;DHT22;7086;48.116;11.580;2022-12-18T06:18:52;-2.30;91.80
14022;DHT22;7086;48.116;11.580;2022-12-18T06:21:22;-3.20;91.60
14022;DHT22;7086;48.116;11.580;2022-12-18T06:23:52;-1.70;92.10
14022;DHT22;7086;48.116;11.580;2022-12-18T06:26:38;-2.20;91.90
14022;DHT22;7086;48.116;11.580;2022-12-18T06:29:10;-1.70;92.40
14022;DHT22;7086;48.116;11.580;2022-12-18T06:31:52;-1.70;91.90
14022;DHT22;7086;48.116;11.580;2022-12-18T06:34:21;-1.80;91.60
14022;DHT22;7086;48.116;11.580;2022-12-18T06:36:51;-1.80;92.20
14022;DHT22;7086;48.116;11.580;2022-12-18T06:39:19;-1.80;92.30
14022;DHT22;7086;48.116;11.580;2022-12-18T06:41:52;0.60;92.70
14022;DHT22;7086;48.116;11.580;2022-12-18T06:44:21;-1.00;92.20
14022;DHT22;7086;48.116;11.580;2022-12-18T06:47:02;-0.30;92.30
14022;DHT22;7086;48.116;11.580;2022-12-18T06:49:30;-1.80;91.90
14022;DHT22;7086;48.116;11.580;2022-12-18T06:52:03;-1.80;92.00
14022;DHT22;7086;48.116;11.580;2022-12-18T06:54:36;-1.80;91.60
14022;DHT22;7086;48.116;11.580;2022-12-18T06:57:21;-0.70;92.30
14022;DHT22;7086;48.116;11.580;2022-12-18T06:59:54;-1.80;92.30
14022;DHT22;7086;48.116;11.580;2022-12-18T07:02:41;-1.40;91.80
14022;DHT22;7086;48.116;11.580;2022-12-18T07:05:43;-1.80;92.10
14022;DHT22;7086;48.116;11.580;2022-12-18T07:08:34;-1.80;92.40
14022;DHT22;7086;48.116;11.580;2022-12-18T07:11:03;-1.50;92.40
14022;DHT22;7086;48.116;11.580;2022-12-18T07:13:31;-1.90;92.40
14022;DHT22;7086;48.116;11.580;2022-12-18T07:16:04;-1.50;92.50
14022;DHT22;7086;48.116;11.580;2022-12-18T07:18:33;-1.80;92.70
14022;DHT22;7086;48.116;11.580;2022-12-18T07:21:03;-0.80;92.60
14022;DHT22;7086;48.116;11.580;2022-12-18T07:23:32;-1.80;92.60
14022;DHT22;7086;48.116;11.580;2022-12-18T07:26:02;-1.90;92.60
14022;DHT22;7086;48.116;11.580;2022-12-18T07:28:30;0.10;93.10
14022;DHT22;7086;48.116;11.580;2022-12-18T07:31:02;-1.70;92.60
14022;DHT22;7086;48.116;11.580;2022-12-18T07:33:30;-1.80;92.50
14022;DHT22;7086;48.116;11.580;2022-12-18T07:35:58;0.80;93.20
14022;DHT22;7086;48.116;11.580;2022-12-18T07:38:26;-2.80;92.00
14022;DHT22;7086;48.116;11.580;2022-12-18T07:41:00;-1.40;92.10
14022;DHT22;7086;48.116;11.580;2022-12-18T07:43:28;-1.80;91.60
14022;DHT22;7086;48.116;11.580;2022-12-18T07:45:56;-0.10;92.30
14022;DHT22;7086;48.116;11.580;2022-12-18T07:48:24;0.70;92.30
14022;DHT22;7086;48.116;11.580;2022-12-18T07:50:52;-1.20;91.90
14022;DHT22;7086;48.116;11.580;2022-12-18T07:53:19;0.50;92.40
14022;DHT22;7086;48.116;11.580;2022-12-18T07:55:47;-2.00;91.60
14022;DHT22;7086;48.116;11.580;2022-12-18T07:58:16;0.20;92.50
14022;DHT22;7086;48.116;11.580;2022-12-18T08:00:44;-0.70;92.30
14022;DHT22;7086;48.116;11.580;2022-12-18T08:03:12;-1.50;92.80
14022;DHT22;7086;48.116;11.580;2022-12-18T08:05:41;-2.00;92.30
14022;DHT22;7086;48.116;11.580;2022-12-18T08:08:09;-1.40;92.50
14022;DHT22;7086;48.116;11.580;2022-12-18T08:10:37;-1.90;92.30
14022;DHT22;7086;48.116;11.580;2022-12-18T08:13:06;-1.80;92.20
14022;DHT22;7086;48.116;11.580;2022-12-18T08:15:35;-2.20;92.30
14022;DHT22;7086;48.116;11.580;2022-12-18T08:18:02;-2.20;92.20
14022;DHT22;7086;48.116;11.580;2022-12-18T08:20:30;-2.20;92.50
14022;DHT22;7086;48.116;11.580;2022-12-18T08:22:57;-2.10;92.70
14022;DHT22;7086;48.116;11.580;2022-12-18T08:25:26;-0.90;93.00
14022;DHT22;7086;48.116;11.580;2022-12-18T08:27:55;-2.20;92.50
14022;DHT22;7086;48.116;11.580;2022-12-18T08:30:22;-2.10;92.40
14022;DHT22;7086;48.116;11.580;2022-12-18T08:32:53;-2.10;92.70
14022;DHT22;7086;48.116;11.580;2022-12-18T08:35:51;-2.00;92.50
14022;DHT22;7086;48.116;11.580;2022-12-18T08:38:54;-2.00;93.00
14022;DHT22;7086;48.116;11.580;2022-12-18T08:42:13;-1.90;92.80
14022;DHT22;7086;48.116;11.580;2022-12-18T08:44:59;-2.60;92.40
14022;DHT22;7086;48.116;11.580;2022-12-18T08:47:35;0.60;92.60
14022;DHT22;7086;48.116;11.580;2022-12-18T08:50:11;-1.90;92.00
14022;DHT22;7086;48.116;11.580;2022-12-18T08:52:40;-0.40;92.70
14022;DHT22;7086;48.116;11.580;2022-12-18T08:55:09;-1.90;92.10
14022;DHT22;7086;48.116;11.580;2022-12-18T08:57:36;-1.90;92.40
14022;DHT22;7086;48.116;11.580;2022-12-18T09:00:06;-1.80;92.30
14022;DHT22;7086;48.116;11.580;2022-12-18T09:02:36;-1.70;92.80
14022;DHT22;7086;48.116;11.580;2022-12-18T09:05:05;-1.80;92.30
14022;DHT22;7086;48.116;11.580;2022-12-18T09:07:42;-1.70;92.60
14022;DHT22;7086;48.116;11.580;2022-12-18T09:10:09;-0.80;92.50
14022;DHT22;7086;48.116;11.580;2022-12-18T09:12:41;-1.10;92.30
14022;DHT22;7086;48.116;11.580;2022-12-18T09:15:22;-1.70;92.20
14022;DHT22;7086;48.116;11.580;2022-12-18T09:17:51;-0.80;92.40
14022;DHT22;7086;48.116;11.580;2022-12-18T09:20:18;0.40;92.80
14022;DHT22;7086;48.116;11.580;2022-12-18T09:22:48;-1.60;92.10
14022;DHT22;7086;48.116;11.580;2022-12-18T09:25:17;-1.40;92.20
14022;DHT22;7086;48.116;11.580;2022-12-18T09:27:58;0.00;92.70
14022;DHT22;7086;48.116;11.580;2022-12-18T09:30:27;-1.60;92.10
14022;DHT22;7086;48.116;11.580;2022-12-18T09:33:08;-2.90;91.80
14022;DHT22;7086;48.116;11.580;2022-12-18T09:35:36;-0.20;92.40
14022;DHT22;7086;48.116;11.580;2022-12-18T09:38:15;-2.10;92.00
14022;DHT22;7086;48.116;11.580;2022-12-18T09:40:46;-1.60;92.40
14022;DHT22;7086;48.116;11.580;2022-12-18T09:43:24;1.00;93.20
14022;DHT22;7086;48.116;11.580;2022-12-18T09:46:14;-1.40;91.90
14022;DHT22;7086;48.116;11.580;2022-12-18T09:48:49;-1.40;92.30
14022;DHT22;7086;48.116;11.580;2022-12-18T09:51:27;-1.40;92.50
14022;DHT22;7086;48.116;11.580;2022-12-18T09:54:23;-1.30;92.10
14022;DHT22;7086;48.116;11.580;2022-12-18T09:56:57;1.10;92.90
14022;DHT22;7086;48.116;11.580;2022-12-18T09:59:29;-1.30;91.70
14022;DHT22;7086;48.116;11.580;2022-12-18T10:02:16;0.70;92.40
14022;DHT22;7086;48.116;11.580;2022-12-18T10:05:05;-1.20;91.90
14022;DHT22;7086;48.116;11.580;2022-12-18T10:07:59;-1.20;92.00
14022;DHT22;7086;48.116;11.580;2022-12-18T10:10:39;0.40;92.40
14022;DHT22;7086;48.116;11.580;2022-12-18T10:13:23;-2.40;91.60
14022;DHT22;7086;48.116;11.580;2022-12-18T10:16:15;-1.20;91.80
14022;DHT22;7086;48.116;11.580;2022-12-18T10:19:09;-2.90;91.30
14022;DHT22;7086;48.116;11.580;2022-12-18T11:11:47;-1.30;91.60
14022;DHT22;7086;48.116;11.580;2022-12-18T11:14:26;-1.00;91.40
14022;DHT22;7086;48.116;11.580;2022-12-18T11:19:52;-1.00;91.70
14022;DHT22;7086;48.116;11.580;2022-12-18T11:22:36;-1.10;91.40
14022;DHT22;7086;48.116;11.580;2022-12-18T11:25:18;-0.60;92.00
14022;DHT22;7086;48.116;11.580;2022-12-18T11:27:52;-1.00;91.50
14022;DHT22;7086;48.116;11.580;2022-12-18T11:30:26;-0.90;91.70
14022;DHT22;7086;48.116;11.580;2022-12-18T11:33:04;-0.90;91.70
14022;DHT22;7086;48.116;11.580;2022-12-18T11:35:40;-0.80;91.80
14022;DHT22;7086;48.116;11.580;2022-12-18T11:38:25;-0.80;91.80
14022;DHT22;7086;48.116;11.580;2022-12-18T11:41:00;-0.80;91.70
14022;DHT22;7086;48.116;11.580;2022-12-18T11:43:55;-0.80;91.80
14022;DHT22;7086;48.116;11.580;2022-12-18T11:46:47;-2.20;91.10
14022;DHT22;7086;48.116;11.580;2022-12-18T11:49:22;-0.70;91.50
14022;DHT22;7086;48.116;11.580;2022-12-18T11:51:58;-0.50;91.60
14022;DHT22;7086;48.116;11.580;2022-12-18T11:54:31;-0.60;91.60
14022;DHT22;7086;48.116;11.580;2022-12-18T11:57:07;-0.60;91.30
14022;DHT22;7086;48.116;11.580;2022-12-18T12:03:47;-0.50;91.50
14022;DHT22;7086;48.116;11.580;2022-12-18T12:06:54;-0.40;91.50
14022;DHT22;7086;48.116;11.580;2022-12-18T12:09:39;-0.50;91.40
14022;DHT22;7086;48.116;11.580;2022-12-18T12:12:39;-0.50;90.80
14022;DHT22;7086;48.116;11.580;2022-12-18T12:15:40;2.10;91.80
14022;DHT22;7086;48.116;11.580;2022-12-18T12:21:27;-0.60;90.80
14022;DHT22;7086;48.116;11.580;2022-12-18T12:24:10;-0.70;90.80
14022;DHT22;7086;48.116;11.580;2022-12-18T12:26:56;-0.80;90.90
14022;DHT22;7086;48.116;11.580;2022-12-18T12:29:39;-0.70;91.00
14022;DHT22;7086;48.116;11.580;2022-12-18T12:32:55;-1.00;90.90
14022;DHT22;7086;48.116;11.580;2022-12-18T13:37:51;-1.50;91.40
14022;DHT22;7086;48.116;11.580;2022-12-18T13:43:41;-1.50;91.50
14022;DHT22;7086;48.116;11.580;2022-12-18T13:46:27;-1.40;91.30
14022;DHT22;7086;48.116;11.580;2022-12-18T13:49:02;-1.60;91.50
14022;DHT22;7086;48.116;11.580;2022-12-18T13:51:46;-3.40;90.70
14022;DHT22;7086;48.116;11.580;2022-12-18T13:54:44;-1.50;91.20
14022;DHT22;7086;48.116;11.580;2022-12-18T13:57:32;-1.60;91.30
14022;DHT22;7086;48.116;11.580;2022-12-18T14:00:23;-1.60;91.20
14022;DHT22;7086;48.116;11.580;2022-12-18T14:03:36;-1.60;91.40
14022;DHT22;7086;48.116;11.580;2022-12-18T14:06:19;-1.60;91.50
14022;DHT22;7086;48.116;11.580;2022-12-18T14:21:19;-1.50;91.70
14022;DHT22;7086;48.116;11.580;2022-12-18T14:24:15;-1.50;91.60
14022;DHT22;7086;48.116;11.580;2022-12-18T14:27:21;-1.30;91.70
14022;DHT22;7086;48.116;11.580;2022-12-18T14:30:27;-1.40;91.40
14022;DHT22;7086;48.116;11.580;2022-12-18T14:33:26;-1.10;91.50
14022;DHT22;7086;48.116;11.580;2022-12-18T18:12:45;-2.40;92.10
14022;DHT22;7086;48.116;11.580;2022-12-18T18:20:46;-2.50;92.40
14022;DHT22;7086;48.116;11.580;2022-12-18T18:23:28;-1.70;92.60
14022;DHT22;7086;48.116;11.580;2022-12-18T20:48:59;-2.60;92.50
14022;DHT22;7086;48.116;11.580;2022-12-18T20:51:44;-2.50;92.60
14022;DHT22;7086;48.116;11.580;2022-12-18T20:54:26;-2.50;92.50
14022;DHT22;7086;48.116;11.580;2022-12-18T20:57:09;-2.60;92.50
14022;DHT22;7086;48.116;11.580;2022-12-18T21:11:12;-2.50;92.50
14022;DHT22;7086;48.116;11.580;2022-12-18T23:22:07;-4.00;92.00
14022;DHT22;7086;48.116;11.580;2022-12-18T23:33:34;-2.30;92.40
14022;DHT22;7086;48.116;11.580;2022-12-18T23:36:18;-0.40;92.60
14022;DHT22;7086;48.116;11.580;2022-12-18T23:39:22;-2.30;92.10
14022;DHT22;7086;48.116;11.580;2022-12-18T23:41:56;-2.30;92.00
14022;DHT22;7086;48.116;11.580;2022-12-18T23:44:59;-2.30;91.60
14022;DHT22;7086;48.116;11.580;2022-12-18T23:48:13;-2.30;91.70
14022;DHT22;7086;48.116;11.580;2022-12-18T23:50:49;-2.20;92.50
14022;DHT22;7086;48.116;11.580;2022-12-18T23:54:28;-1.30;92.30
14022;DHT22;7086;48.116;11.580;2022-12-18T23:57:30;-2.30;92.30
